Time;durP1;ratioP1;P1;durP2;ratioP2;P2;SDS_P1;SDS_P2;PMS_P1;PMS_P2;Temp;Humidity;BMP_temperature;BMP_pressure;BME280_temperature;BME280_humidity;BME280_pressure;Samples;Min_cycle;Max_cycle;Signal;HPM_P1;HPM_P2
2023/09/08 00:00:26;;;;;;;5.70;3.63;;;;;;;;;;5073254;28;20577;-76
2023/09/08 00:03:10;;;;;;;7.60;4.33;;;;;;;;;;5073184;28;20154;-76
2023/09/08 00:05:37;;;;;;;8.37;3.97;;;;;;;;;;5073142;28;20185;-76
2023/09/08 00:08:04;;;;;;;9.80;5.27;;;;;;;;;;5073064;28;20232;-76
2023/09/08 00:10:30;;;;;;;6.73;4.53;;;;;;;;;;5059204;28;20190;-76
2023/09/08 00:16:56;;;;;;;6.90;3.60;;;;;;;;;;5076340;28;20267;-76
2023/09/08 00:19:23;;;;;;;6.67;3.83;;;;;;;;;;5076416;28;20225;-76
2023/09/08 00:21:50;;;;;;;6.13;3.40;;;;;;;;;;5076121;28;20183;-76
2023/09/08 00:24:18;;;;;;;7.53;3.67;;;;;;;;;;5076079;28;20698;-76
2023/09/08 00:26:45;;;;;;;6.00;3.57;;;;;;;;;;5076017;28;20266;-76
2023/09/08 00:29:12;;;;;;;5.87;3.60;;;;;;;;;;5076466;28;20237;-75
2023/09/08 00:31:38;;;;;;;6.30;3.87;;;;;;;;;;5058565;28;20716;-76
2023/09/08 00:38:05;;;;;;;4.83;3.50;;;;;;;;;;5076268;28;20196;-76
2023/09/08 00:44:31;;;;;;;7.57;3.30;;;;;;;;;;5076093;28;20528;-76
2023/09/08 00:50:58;;;;;;;4.70;3.10;;;;;;;;;;5075762;28;20162;-76
2023/09/08 00:53:25;;;;;;;5.13;3.60;;;;;;;;;;5075836;28;20528;-76
2023/09/08 00:55:53;;;;;;;6.63;3.70;;;;;;;;;;5041809;28;20194;-76
2023/09/08 00:58:20;;;;;;;5.10;3.80;;;;;;;;;;5075701;28;20265;-76
2023/09/08 01:00:47;;;;;;;10.47;3.80;;;;;;;;;;5057958;28;20186;-77
2023/09/08 01:03:14;;;;;;;6.47;3.00;;;;;;;;;;5074391;28;20202;-76
2023/09/08 01:05:41;;;;;;;5.40;3.27;;;;;;;;;;5057280;28;20229;-76
2023/09/08 01:08:08;;;;;;;9.70;3.70;;;;;;;;;;5075671;28;20268;-76
2023/09/08 01:50:24;;;;;;;4.80;3.10;;;;;;;;;;5074490;28;20686;-76
2023/09/08 01:56:51;;;;;;;5.70;3.73;;;;;;;;;;5074401;28;20181;-76
2023/09/08 01:59:17;;;;;;;8.20;4.70;;;;;;;;;;5074266;28;20224;-76
2023/09/08 02:01:44;;;;;;;5.60;3.70;;;;;;;;;;5040805;28;20198;-77
2023/09/08 02:04:11;;;;;;;9.30;4.47;;;;;;;;;;5057088;28;20574;-76
2023/09/08 02:06:37;;;;;;;6.40;4.07;;;;;;;;;;5056687;28;20556;-77
2023/09/08 02:13:04;;;;;;;6.90;4.50;;;;;;;;;;5074385;28;20340;-76
2023/09/08 02:15:31;;;;;;;5.67;3.50;;;;;;;;;;5073117;28;20577;-76
2023/09/08 02:17:58;;;;;;;5.57;3.73;;;;;;;;;;5056304;28;20190;-76
2023/09/08 02:20:24;;;;;;;6.80;3.73;;;;;;;;;;5056159;28;20194;-76
2023/09/08 02:26:44;;;;;;;5.50;3.63;;;;;;;;;;5074146;28;20701;-76
2023/09/08 02:29:29;;;;;;;6.20;3.73;;;;;;;;;;5056291;28;20304;-76
2023/09/08 02:31:56;;;;;;;6.10;3.87;;;;;;;;;;5072299;28;20170;-75
2023/09/08 02:34:23;;;;;;;5.97;3.37;;;;;;;;;;5056389;28;20190;-75
2023/09/08 02:36:50;;;;;;;6.30;3.50;;;;;;;;;;5056098;28;20190;-76
2023/09/08 02:43:21;;;;;;;5.57;3.92;;;;;;;;;;5073720;28;20835;-76
2023/09/08 02:45:48;;;;;;;7.33;4.33;;;;;;;;;;5073865;28;20190;-80
2023/09/08 02:48:16;;;;;;;6.53;3.70;;;;;;;;;;5039484;28;20214;-72
2023/09/08 02:50:43;;;;;;;7.27;4.17;;;;;;;;;;5073280;28;20264;-73
2023/09/08 02:53:10;;;;;;;6.03;3.97;;;;;;;;;;5055624;28;20186;-74
2023/09/08 02:55:37;;;;;;;5.07;3.90;;;;;;;;;;5074438;28;20243;-73
2023/09/08 03:02:03;;;;;;;8.30;4.23;;;;;;;;;;5073605;28;20204;-72
2023/09/08 03:04:30;;;;;;;4.37;3.17;;;;;;;;;;5055419;28;20186;-72
2023/09/08 03:06:57;;;;;;;5.40;3.43;;;;;;;;;;5055547;28;20186;-73
2023/09/08 03:09:24;;;;;;;5.20;3.70;;;;;;;;;;5039136;28;20210;-73
2023/09/08 03:11:51;;;;;;;4.63;3.40;;;;;;;;;;5055736;28;20204;-73
2023/09/08 03:14:18;;;;;;;6.37;3.73;;;;;;;;;;5055594;28;20238;-73
2023/09/08 03:20:47;;;;;;;6.23;3.40;;;;;;;;;;5073414;28;20157;-74
2023/09/08 03:27:15;;;;;;;5.93;3.33;;;;;;;;;;5073601;28;20149;-76
2023/09/08 03:29:42;;;;;;;8.43;4.43;;;;;;;;;;5039163;28;20210;-73
2023/09/08 03:32:09;;;;;;;7.97;3.73;;;;;;;;;;5073977;28;20637;-75
2023/09/08 03:34:39;;;;;;;8.17;3.87;;;;;;;;;;5040146;28;20194;-77
2023/09/08 03:37:07;;;;;;;5.80;3.37;;;;;;;;;;5056213;28;20259;-77
2023/09/08 03:43:27;;;;;;;11.73;4.10;;;;;;;;;;5075692;28;20169;-72
2023/09/08 03:46:12;;;;;;;15.43;4.47;;;;;;;;;;5059811;28;20235;-74
2023/09/08 03:48:39;;;;;;;17.30;3.90;;;;;;;;;;5042583;28;20193;-73
2023/09/08 03:51:08;;;;;;;10.50;3.83;;;;;;;;;;5042886;28;20205;-73
2023/09/08 03:53:35;;;;;;;18.73;3.97;;;;;;;;;;5043134;28;20194;-73
2023/09/08 03:56:02;;;;;;;11.80;3.80;;;;;;;;;;5076647;28;20682;-72
2023/09/08 04:02:23;;;;;;;18.93;4.93;;;;;;;;;;5078093;28;20204;-75
2023/09/08 04:04:52;;;;;;;29.83;5.30;;;;;;;;;;5076769;28;20197;-74
2023/09/08 04:11:25;;;;;;;29.80;5.27;;;;;;;;;;5077213;28;20702;-76
2023/09/08 04:13:54;;;;;;;35.57;6.00;;;;;;;;;;5061853;28;20210;-76
2023/09/08 04:16:22;;;;;;;25.23;5.80;;;;;;;;;;5061322;28;20213;-75
2023/09/08 04:22:50;;;;;;;17.80;4.63;;;;;;;;;;5076566;28;20165;-74
2023/09/08 04:29:16;;;;;;;13.43;4.57;;;;;;;;;;5076548;28;20617;-75
2023/09/08 04:31:45;;;;;;;14.13;4.60;;;;;;;;;;5075662;28;20204;-75
2023/09/08 04:34:12;;;;;;;18.10;4.67;;;;;;;;;;5076603;28;20190;-77
2023/09/08 04:36:39;;;;;;;19.10;4.77;;;;;;;;;;5058925;28;20639;-74
2023/09/08 04:43:06;;;;;;;19.00;4.73;;;;;;;;;;5076775;28;20196;-76
2023/09/08 04:45:35;;;;;;;11.70;4.47;;;;;;;;;;5059352;28;20197;-76
2023/09/08 04:48:04;;;;;;;21.07;5.37;;;;;;;;;;5077269;28;20186;-76
2023/09/08 04:50:32;;;;;;;15.77;5.10;;;;;;;;;;5059164;28;20217;-76
2023/09/08 04:53:02;;;;;;;19.00;5.33;;;;;;;;;;5058770;28;20664;-76
2023/09/08 04:55:48;;;;;;;21.80;5.37;;;;;;;;;;5044170;28;20184;-76
2023/09/08 04:58:19;;;;;;;15.83;4.93;;;;;;;;;;5058637;28;20194;-76
2023/09/08 05:00:48;;;;;;;18.13;5.27;;;;;;;;;;5059414;28;20276;-76
2023/09/08 05:03:15;;;;;;;14.10;5.10;;;;;;;;;;5041892;28;20652;-74
2023/09/08 05:05:42;;;;;;;19.13;5.83;;;;;;;;;;5058394;28;20190;-73
2023/09/08 05:08:28;;;;;;;20.63;5.70;;;;;;;;;;5044239;28;20224;-74
2023/09/08 05:10:56;;;;;;;12.03;5.40;;;;;;;;;;5041103;28;20633;-73
2023/09/08 05:13:26;;;;;;;10.60;5.30;;;;;;;;;;5057839;28;20530;-75
2023/09/08 05:16:10;;;;;;;10.70;4.57;;;;;;;;;;5057723;28;20224;-74
2023/09/08 05:22:36;;;;;;;17.50;5.53;;;;;;;;;;5075488;28;20161;-73
2023/09/08 05:25:05;;;;;;;19.07;6.17;;;;;;;;;;5057633;28;20198;-75
2023/09/08 05:27:32;;;;;;;16.13;5.77;;;;;;;;;;5075270;28;20547;-73
2023/09/08 05:30:00;;;;;;;11.50;5.50;;;;;;;;;;5040741;28;20210;-74
2023/09/08 05:36:23;;;;;;;15.50;6.30;;;;;;;;;;5075194;28;20166;-73
2023/09/08 05:38:51;;;;;;;11.50;5.83;;;;;;;;;;5057689;28;20599;-75
2023/09/08 05:41:19;;;;;;;12.53;5.53;;;;;;;;;;5057561;28;20244;-74
2023/09/08 05:43:46;;;;;;;12.73;5.80;;;;;;;;;;5057225;28;20201;-74
2023/09/08 05:46:31;;;;;;;17.70;6.47;;;;;;;;;;5056998;28;20163;-75
2023/09/08 05:48:58;;;;;;;19.10;7.63;;;;;;;;;;5056789;28;20276;-75
2023/09/08 05:55:18;;;;;;;25.77;7.33;;;;;;;;;;5074665;28;20158;-75
2023/09/08 05:57:45;;;;;;;22.83;7.13;;;;;;;;;;5041033;28;20194;-75
2023/09/08 06:00:13;;;;;;;32.13;8.33;;;;;;;;;;5056884;28;20220;-77
2023/09/08 06:02:44;;;;;;;74.90;11.90;;;;;;;;;;5056710;28;20213;-77
2023/09/08 06:05:29;;;;;;;46.47;10.83;;;;;;;;;;5057454;28;20478;-74
2023/09/08 06:07:56;;;;;;;55.27;11.20;;;;;;;;;;5055353;28;20695;-73
2023/09/08 06:10:37;;;;;;;39.50;10.00;;;;;;;;;;5056490;28;20310;-68
2023/09/08 06:17:00;;;;;;;37.90;9.90;;;;;;;;;;5074372;28;20172;-69
2023/09/08 06:19:27;;;;;;;31.23;9.63;;;;;;;;;;5040096;28;20190;-70
2023/09/08 06:21:55;;;;;;;21.10;7.10;;;;;;;;;;5074521;28;20277;-70
2023/09/08 06:24:22;;;;;;;20.40;6.53;;;;;;;;;;5074422;28;20557;-71
2023/09/08 06:26:50;;;;;;;29.13;7.63;;;;;;;;;;5056523;28;20186;-70
2023/09/08 06:29:22;;;;;;;20.17;7.30;;;;;;;;;;5056378;28;20218;-70
2023/09/08 06:31:50;;;;;;;22.57;7.30;;;;;;;;;;5056602;28;20194;-71
2023/09/08 06:34:21;;;;;;;20.00;8.10;;;;;;;;;;5057194;28;20181;-73
2023/09/08 06:36:49;;;;;;;18.00;6.63;;;;;;;;;;5042225;28;20194;-81
2023/09/08 06:39:17;;;;;;;25.07;7.40;;;;;;;;;;5060249;28;20617;-75
2023/09/08 06:41:44;;;;;;;21.43;7.43;;;;;;;;;;5058156;28;20595;-77
2023/09/08 06:44:14;;;;;;;18.37;6.73;;;;;;;;;;5058378;28;20648;-72
2023/09/08 06:50:40;;;;;;;22.83;6.53;;;;;;;;;;5075583;28;20281;-79
2023/09/08 06:57:09;;;;;;;16.07;6.13;;;;;;;;;;5074925;28;20161;-73
2023/09/08 07:03:39;;;;;;;19.83;6.63;;;;;;;;;;5054433;28;20161;-76
2023/09/08 07:10:09;;;;;;;15.37;5.40;;;;;;;;;;5053743;28;20649;-74
2023/09/08 07:12:42;;;;;;;11.00;5.33;;;;;;;;;;5036187;28;20735;-72
2023/09/08 07:15:10;;;;;;;16.33;5.33;;;;;;;;;;5037220;28;20206;-77
2023/09/08 07:21:38;;;;;;;12.37;6.40;;;;;;;;;;5060972;28;20181;-72
2023/09/08 07:24:05;;;;;;;10.83;5.30;;;;;;;;;;5057876;28;20195;-73
2023/09/08 07:26:35;;;;;;;8.67;4.77;;;;;;;;;;5040754;28;20185;-71
2023/09/08 07:37:06;;;;;;;7.57;4.30;;;;;;;;;;4957000;29;20193;-73
2023/09/08 07:44:20;;;;;;;6.53;4.30;;;;;;;;;;4895078;29;20224;-73
2023/09/08 07:51:20;;;;;;;8.03;4.37;;;;;;;;;;4862660;29;20668;-71
2023/09/08 07:57:42;;;;;;;5.67;3.80;;;;;;;;;;4878470;29;20176;-72
2023/09/08 08:00:12;;;;;;;11.20;4.20;;;;;;;;;;4899849;29;20200;-70
2023/09/08 08:02:48;;;;;;;9.83;4.13;;;;;;;;;;4899666;29;20200;-70
2023/09/08 08:05:35;;;;;;;6.20;4.17;;;;;;;;;;4891438;29;20196;-71
2023/09/08 08:08:02;;;;;;;8.70;4.90;;;;;;;;;;4918524;29;20199;-70
2023/09/08 08:10:48;;;;;;;7.53;4.40;;;;;;;;;;4891692;29;20223;-69
2023/09/08 08:13:15;;;;;;;6.60;4.00;;;;;;;;;;4907045;28;20214;-70
2023/09/08 08:15:47;;;;;;;6.50;3.73;;;;;;;;;;4975769;28;20192;-70
2023/09/08 08:18:16;;;;;;;5.47;4.00;;;;;;;;;;4960452;28;20194;-70
2023/09/08 08:21:02;;;;;;;5.80;4.03;;;;;;;;;;4976029;28;20170;-71
2023/09/08 08:23:33;;;;;;;7.83;6.67;;;;;;;;;;4989506;28;20279;-70
2023/09/08 08:26:03;;;;;;;6.93;4.17;;;;;;;;;;5035857;28;20237;-69
2023/09/08 08:28:35;;;;;;;5.67;3.80;;;;;;;;;;5018330;28;20184;-71
2023/09/08 08:31:04;;;;;;;6.57;3.77;;;;;;;;;;5019682;28;20673;-73
2023/09/08 08:33:33;;;;;;;5.77;3.57;;;;;;;;;;5034911;28;20206;-72
2023/09/08 08:36:07;;;;;;;4.33;3.37;;;;;;;;;;5036502;28;20183;-71
2023/09/08 08:38:35;;;;;;;6.87;5.47;;;;;;;;;;5036526;28;20203;-71
2023/09/08 08:41:06;;;;;;;4.93;4.40;;;;;;;;;;5018825;28;20187;-72
2023/09/08 08:43:37;;;;;;;6.13;4.10;;;;;;;;;;5026962;28;20244;-68
2023/09/08 08:46:06;;;;;;;6.27;4.13;;;;;;;;;;5058215;28;20189;-70
2023/09/08 08:48:37;;;;;;;6.13;3.87;;;;;;;;;;5074848;28;20217;-70
2023/09/08 08:51:12;;;;;;;5.83;3.50;;;;;;;;;;5043048;28;20287;-69
2023/09/08 08:53:49;;;;;;;6.37;3.70;;;;;;;;;;5043312;28;20206;-67
2023/09/08 08:56:27;;;;;;;6.20;3.40;;;;;;;;;;5044847;28;20221;-71
2023/09/08 09:02:55;;;;;;;5.80;3.60;;;;;;;;;;5075714;28;20162;-71
2023/09/08 09:05:41;;;;;;;6.63;3.70;;;;;;;;;;5074779;28;20284;-68
2023/09/08 09:08:18;;;;;;;4.37;3.70;;;;;;;;;;5042539;28;20367;-68
2023/09/08 09:10:46;;;;;;;6.10;4.30;;;;;;;;;;5068529;28;20232;-70
2023/09/08 09:13:15;;;;;;;6.17;3.83;;;;;;;;;;5061517;28;20214;-70
2023/09/08 09:15:44;;;;;;;4.63;3.50;;;;;;;;;;5058368;28;20275;-70
2023/09/08 09:18:12;;;;;;;4.33;3.90;;;;;;;;;;5057204;28;20259;-70
2023/09/08 09:20:41;;;;;;;4.07;3.57;;;;;;;;;;5057454;28;20185;-70
2023/09/08 09:23:10;;;;;;;3.57;2.93;;;;;;;;;;5057014;28;20217;-71
2023/09/08 09:25:37;;;;;;;3.50;3.13;;;;;;;;;;5057951;28;20549;-70
2023/09/08 09:28:06;;;;;;;5.60;3.50;;;;;;;;;;5057560;28;20624;-70
2023/09/08 09:30:48;;;;;;;3.90;3.50;;;;;;;;;;5055078;28;20216;-70
2023/09/08 09:33:16;;;;;;;6.37;3.70;;;;;;;;;;5024960;28;20190;-71
2023/09/08 09:35:51;;;;;;;4.37;3.70;;;;;;;;;;5040899;28;20174;-71
2023/09/08 09:38:20;;;;;;;4.20;3.53;;;;;;;;;;5057892;28;20528;-71
2023/09/08 09:40:48;;;;;;;5.13;3.20;;;;;;;;;;5057105;28;20242;-69
2023/09/08 09:47:11;;;;;;;5.87;3.80;;;;;;;;;;5073738;28;20184;-71
2023/09/08 09:53:38;;;;;;;8.03;3.63;;;;;;;;;;5074665;28;20161;-71
2023/09/08 09:56:06;;;;;;;5.03;3.83;;;;;;;;;;5056939;28;20198;-70
2023/09/08 10:02:32;;;;;;;6.13;3.53;;;;;;;;;;5074795;28;20162;-70
2023/09/08 10:09:04;;;;;;;5.43;3.50;;;;;;;;;;5074107;28;20291;-71
2023/09/08 10:11:33;;;;;;;6.47;3.70;;;;;;;;;;5057511;28;20218;-71
2023/09/08 10:14:02;;;;;;;5.03;3.80;;;;;;;;;;5056494;28;20653;-72
2023/09/08 10:16:33;;;;;;;5.90;3.40;;;;;;;;;;5057565;28;20168;-71
2023/09/08 10:19:01;;;;;;;5.60;3.77;;;;;;;;;;5057370;28;20650;-71
2023/09/08 10:21:27;;;;;;;5.90;3.33;;;;;;;;;;5056261;28;20670;-71
2023/09/08 10:27:49;;;;;;;6.70;3.83;;;;;;;;;;5073895;28;20631;-71
2023/09/08 10:30:16;;;;;;;6.63;3.80;;;;;;;;;;5056203;28;20297;-72
2023/09/08 10:32:43;;;;;;;4.83;3.13;;;;;;;;;;5039509;28;20190;-71
2023/09/08 10:35:10;;;;;;;3.77;3.47;;;;;;;;;;5039447;28;20197;-72
2023/09/08 10:37:40;;;;;;;4.30;3.77;;;;;;;;;;5039631;28;20211;-72
2023/09/08 10:40:23;;;;;;;3.57;3.27;;;;;;;;;;5073920;28;20260;-71
2023/09/08 10:43:05;;;;;;;3.23;2.93;;;;;;;;;;5073589;28;20223;-71
2023/09/08 10:45:32;;;;;;;3.87;3.40;;;;;;;;;;5074220;28;20174;-72
2023/09/08 10:51:53;;;;;;;5.83;3.50;;;;;;;;;;5073212;28;20253;-71
2023/09/08 10:54:38;;;;;;;6.23;3.43;;;;;;;;;;5056350;28;20190;-71
2023/09/08 10:57:06;;;;;;;6.73;3.43;;;;;;;;;;5073951;28;20182;-71
2023/09/08 10:59:36;;;;;;;5.80;3.30;;;;;;;;;;5039290;28;20221;-71
2023/09/08 11:02:03;;;;;;;11.03;4.17;;;;;;;;;;5056075;28;20300;-71
2023/09/08 11:04:30;;;;;;;6.33;3.27;;;;;;;;;;5055522;28;20186;-72
2023/09/08 11:07:14;;;;;;;4.50;3.13;;;;;;;;;;5073589;28;20656;-71
2023/09/08 11:09:44;;;;;;;3.87;3.47;;;;;;;;;;5072068;28;20640;-71
2023/09/08 11:12:11;;;;;;;4.90;3.17;;;;;;;;;;5055952;28;20186;-71
2023/09/08 11:18:37;;;;;;;3.43;3.00;;;;;;;;;;5073671;28;20189;-71
2023/09/08 11:21:07;;;;;;;3.57;3.00;;;;;;;;;;5039272;28;20542;-71
2023/09/08 11:23:34;;;;;;;4.10;3.20;;;;;;;;;;5039066;28;20200;-71
2023/09/08 11:26:01;;;;;;;3.30;3.00;;;;;;;;;;5055856;28;20182;-71
2023/09/08 11:28:28;;;;;;;5.07;2.93;;;;;;;;;;5056312;28;20218;-71
2023/09/08 11:31:14;;;;;;;8.57;3.50;;;;;;;;;;5055770;28;20201;-71
2023/09/08 11:33:43;;;;;;;4.17;2.97;;;;;;;;;;5055966;28;20497;-71
2023/09/08 11:36:16;;;;;;;3.80;3.17;;;;;;;;;;5072961;28;20686;-71
2023/09/08 11:38:45;;;;;;;4.87;3.30;;;;;;;;;;5039798;28;20648;-71
2023/09/08 11:45:21;;;;;;;9.33;3.50;;;;;;;;;;5073176;28;20172;-71
2023/09/08 11:47:51;;;;;;;3.90;3.30;;;;;;;;;;5055960;28;20159;-71
2023/09/08 11:50:18;;;;;;;3.40;3.10;;;;;;;;;;5054908;28;20225;-71
2023/09/08 11:52:46;;;;;;;4.90;3.40;;;;;;;;;;5055211;28;20186;-71
2023/09/08 11:55:13;;;;;;;3.87;3.50;;;;;;;;;;5072936;28;20217;-71
2023/09/08 11:57:40;;;;;;;4.03;3.07;;;;;;;;;;5038842;28;20202;-70
2023/09/08 12:00:09;;;;;;;4.33;3.30;;;;;;;;;;5055969;28;20190;-70
2023/09/08 12:02:37;;;;;;;6.40;3.67;;;;;;;;;;5072937;28;20217;-71
2023/09/08 12:09:06;;;;;;;3.40;3.10;;;;;;;;;;5076729;28;20238;-69
2023/09/08 12:15:45;;;;;;;6.10;4.20;;;;;;;;;;5076565;28;20177;-69
2023/09/08 12:18:12;;;;;;;5.20;4.53;;;;;;;;;;5042445;28;20585;-69
2023/09/08 12:31:42;;;;;;;7.37;4.20;;;;;;;;;;5076548;28;20212;-71
2023/09/08 12:34:31;;;;;;;5.50;4.03;;;;;;;;;;5061046;28;20176;-69
2023/09/08 12:36:59;;;;;;;5.00;4.30;;;;;;;;;;5041975;28;20236;-70
2023/09/08 12:39:44;;;;;;;7.83;4.63;;;;;;;;;;5076420;28;20292;-70
2023/09/08 12:42:11;;;;;;;5.70;4.13;;;;;;;;;;5074786;28;20541;-69
2023/09/08 12:44:38;;;;;;;15.37;5.33;;;;;;;;;;5075056;28;20178;-69
2023/09/08 12:51:05;;;;;;;7.07;4.67;;;;;;;;;;5076084;28;20693;-72
2023/09/08 12:53:35;;;;;;;8.57;4.57;;;;;;;;;;5076053;28;20182;-71
2023/09/08 13:00:04;;;;;;;6.53;4.43;;;;;;;;;;5055929;28;20617;-71
2023/09/08 13:02:34;;;;;;;9.53;4.40;;;;;;;;;;5055562;28;20183;-71
2023/09/08 13:05:02;;;;;;;6.33;4.73;;;;;;;;;;5038589;28;20529;-73
2023/09/08 13:07:30;;;;;;;7.70;4.90;;;;;;;;;;5038868;28;20273;-72
2023/09/08 13:09:59;;;;;;;5.33;4.40;;;;;;;;;;5053795;28;20238;-69
2023/09/08 13:12:26;;;;;;;5.53;4.23;;;;;;;;;;5037522;28;20683;-68
2023/09/08 13:14:54;;;;;;;5.83;4.23;;;;;;;;;;5037451;28;20229;-68
2023/09/08 13:17:21;;;;;;;7.93;4.63;;;;;;;;;;5038329;28;20282;-69
2023/09/08 13:19:48;;;;;;;8.60;4.50;;;;;;;;;;5037502;28;20633;-69
2023/09/08 13:22:16;;;;;;;5.97;4.57;;;;;;;;;;5038291;28;20183;-69
2023/09/08 13:24:43;;;;;;;5.50;4.90;;;;;;;;;;5053924;28;20288;-70
2023/09/08 13:27:12;;;;;;;7.97;5.27;;;;;;;;;;5038007;28;20270;-70
2023/09/08 13:29:39;;;;;;;9.67;5.53;;;;;;;;;;5054102;28;20183;-71
2023/09/08 13:32:28;;;;;;;12.17;4.93;;;;;;;;;;5055196;28;20261;-71
2023/09/08 13:34:59;;;;;;;6.13;4.53;;;;;;;;;;5054858;28;20225;-68
2023/09/08 13:37:30;;;;;;;16.17;5.93;;;;;;;;;;5038355;28;20493;-72
2023/09/08 13:39:57;;;;;;;6.40;5.00;;;;;;;;;;5037131;28;20205;-71
2023/09/08 13:42:24;;;;;;;6.27;4.73;;;;;;;;;;5053628;28;20622;-71
2023/09/08 13:45:08;;;;;;;7.77;4.50;;;;;;;;;;5054049;28;20150;-71
2023/09/08 13:47:37;;;;;;;8.07;4.77;;;;;;;;;;5054560;28;20194;-71
2023/09/08 13:50:06;;;;;;;6.77;4.73;;;;;;;;;;5021691;28;20191;-70
2023/09/08 13:52:36;;;;;;;5.47;4.63;;;;;;;;;;5036851;28;20225;-70
2023/09/08 13:55:07;;;;;;;7.83;5.03;;;;;;;;;;5020726;28;20187;-71
2023/09/08 13:57:51;;;;;;;5.93;5.37;;;;;;;;;;5055082;28;20170;-71
2023/09/08 14:00:21;;;;;;;6.13;5.13;;;;;;;;;;5037336;28;20751;-71
2023/09/08 14:02:50;;;;;;;7.63;5.40;;;;;;;;;;5054355;28;20194;-70
2023/09/08 14:05:24;;;;;;;11.30;6.00;;;;;;;;;;5038472;28;20229;-70
2023/09/08 14:07:56;;;;;;;7.67;5.47;;;;;;;;;;5038176;28;20669;-70
2023/09/08 14:10:40;;;;;;;6.83;4.90;;;;;;;;;;5033338;28;20230;-70
2023/09/08 14:13:19;;;;;;;10.10;5.70;;;;;;;;;;5033388;28;20343;-70
2023/09/08 14:15:46;;;;;;;9.13;4.90;;;;;;;;;;5016404;28;20198;-71
2023/09/08 14:18:14;;;;;;;7.13;5.97;;;;;;;;;;5016618;28;20194;-71
2023/09/08 14:20:41;;;;;;;6.37;5.50;;;;;;;;;;5033323;28;20194;-71
2023/09/08 14:23:08;;;;;;;10.83;5.07;;;;;;;;;;5016689;28;20196;-70
2023/09/08 14:25:52;;;;;;;9.13;5.43;;;;;;;;;;5034386;28;20148;-71
2023/09/08 14:28:19;;;;;;;11.23;5.47;;;;;;;;;;5015950;28;20222;-71
2023/09/08 14:30:46;;;;;;;10.57;5.40;;;;;;;;;;5032801;28;20186;-71
2023/09/08 14:33:14;;;;;;;13.50;5.77;;;;;;;;;;5032834;28;20189;-70
2023/09/08 14:35:43;;;;;;;9.77;5.17;;;;;;;;;;5034894;28;20218;-71
2023/09/08 14:38:10;;;;;;;9.33;5.30;;;;;;;;;;5033750;28;20226;-70
2023/09/08 14:40:37;;;;;;;12.43;5.30;;;;;;;;;;5033655;28;20569;-70
2023/09/08 14:43:04;;;;;;;7.67;4.93;;;;;;;;;;5033332;28;20286;-71
2023/09/08 14:45:31;;;;;;;6.63;4.30;;;;;;;;;;5000058;28;20196;-70
2023/09/08 14:47:58;;;;;;;6.80;5.00;;;;;;;;;;5032484;28;20202;-73
2023/09/08 14:50:27;;;;;;;8.63;5.07;;;;;;;;;;5033703;28;20222;-72
2023/09/08 14:52:55;;;;;;;9.73;5.00;;;;;;;;;;5016358;28;20209;-71
2023/09/08 14:55:23;;;;;;;5.70;4.80;;;;;;;;;;5016432;28;20194;-70
2023/09/08 14:57:51;;;;;;;5.70;5.10;;;;;;;;;;5032517;28;20192;-69
2023/09/08 15:00:18;;;;;;;8.30;4.73;;;;;;;;;;5032684;28;20183;-69
2023/09/08 15:02:45;;;;;;;4.70;4.27;;;;;;;;;;5033776;28;20210;-69
2023/09/08 15:05:12;;;;;;;9.63;4.77;;;;;;;;;;5033008;28;20270;-69
2023/09/08 15:07:39;;;;;;;6.50;4.50;;;;;;;;;;5033161;28;20573;-70
2023/09/08 15:10:06;;;;;;;4.90;4.40;;;;;;;;;;5037932;28;20554;-69
2023/09/08 15:12:34;;;;;;;4.97;4.47;;;;;;;;;;5052041;28;20229;-70
2023/09/08 15:15:03;;;;;;;5.30;4.33;;;;;;;;;;5036447;28;20194;-70
2023/09/08 15:17:33;;;;;;;5.20;4.53;;;;;;;;;;5020923;28;20203;-78
2023/09/08 15:20:00;;;;;;;5.97;4.67;;;;;;;;;;5055207;28;20577;-85
2023/09/08 15:22:28;;;;;;;6.93;4.17;;;;;;;;;;5054573;28;20215;-74
2023/09/08 15:24:55;;;;;;;4.83;4.27;;;;;;;;;;5054348;28;20217;-76
2023/09/08 15:31:23;;;;;;;5.50;4.63;;;;;;;;;;5056077;28;20274;-88
2023/09/08 15:33:52;;;;;;;6.33;4.47;;;;;;;;;;5037238;28;20175;-74
2023/09/08 15:36:19;;;;;;;7.33;4.80;;;;;;;;;;5036653;28;20186;-86
2023/09/08 15:38:46;;;;;;;5.73;4.40;;;;;;;;;;5021746;28;20241;-78
2023/09/08 15:41:17;;;;;;;7.67;4.60;;;;;;;;;;5041333;28;20217;-75
2023/09/08 15:43:48;;;;;;;5.10;4.27;;;;;;;;;;5025455;28;20206;-80
2023/09/08 15:46:16;;;;;;;6.90;4.73;;;;;;;;;;5040653;28;20695;-78
2023/09/08 15:48:44;;;;;;;7.13;4.70;;;;;;;;;;5024740;28;20183;-83
2023/09/08 15:51:28;;;;;;;8.87;4.87;;;;;;;;;;5044419;28;20202;-84
2023/09/08 15:53:58;;;;;;;5.73;4.70;;;;;;;;;;5024847;28;20523;-75
2023/09/08 15:56:27;;;;;;;8.97;4.73;;;;;;;;;;5033137;28;20171;-79
2023/09/08 15:58:54;;;;;;;7.23;4.60;;;;;;;;;;5024595;28;20248;-79
2023/09/08 16:01:21;;;;;;;6.60;4.60;;;;;;;;;;5058111;28;20195;-82
2023/09/08 16:04:09;;;;;;;6.37;4.83;;;;;;;;;;5059978;28;20222;-78
2023/09/08 16:06:41;;;;;;;5.40;4.10;;;;;;;;;;5025097;28;20191;-76
2023/09/08 16:17:07;;;;;;;4.87;4.37;;;;;;;;;;5058094;28;20158;-80
2023/09/08 16:23:34;;;;;;;6.03;4.80;;;;;;;;;;5057439;28;20168;-79
2023/09/08 16:26:02;;;;;;;5.30;4.80;;;;;;;;;;5056581;28;20186;-79
2023/09/08 16:28:28;;;;;;;7.33;4.87;;;;;;;;;;5040621;28;20548;-80
2023/09/08 16:30:55;;;;;;;6.93;5.00;;;;;;;;;;5056863;28;20218;-80
2023/09/08 16:33:22;;;;;;;6.80;4.73;;;;;;;;;;5056744;28;20204;-79
2023/09/08 16:39:44;;;;;;;5.53;4.90;;;;;;;;;;5058315;28;20626;-78
2023/09/08 16:42:29;;;;;;;7.83;4.70;;;;;;;;;;5041826;28;20175;-79
2023/09/08 16:44:56;;;;;;;13.87;4.83;;;;;;;;;;5024463;28;20695;-79
2023/09/08 16:51:17;;;;;;;8.47;4.97;;;;;;;;;;5056113;28;20154;-78
2023/09/08 16:54:01;;;;;;;6.73;4.70;;;;;;;;;;5041709;28;20160;-78
2023/09/08 16:56:28;;;;;;;7.77;5.00;;;;;;;;;;5039544;28;20240;-75
2023/09/08 16:59:01;;;;;;;14.30;5.60;;;;;;;;;;5040209;28;20200;-80
2023/09/08 17:05:28;;;;;;;8.67;4.50;;;;;;;;;;5056555;28;20173;-81
2023/09/08 17:07:56;;;;;;;7.10;4.73;;;;;;;;;;5022256;28;20218;-81
2023/09/08 17:10:23;;;;;;;7.13;4.70;;;;;;;;;;5055843;28;20187;-79
2023/09/08 17:12:51;;;;;;;7.17;4.70;;;;;;;;;;5037706;28;20230;-78
2023/09/08 17:15:17;;;;;;;7.97;4.93;;;;;;;;;;5038381;28;20195;-79
2023/09/08 17:18:02;;;;;;;7.93;4.87;;;;;;;;;;5055899;28;20598;-80
2023/09/08 17:20:30;;;;;;;9.90;5.17;;;;;;;;;;5069649;28;20188;-80
2023/09/08 17:22:58;;;;;;;10.20;4.60;;;;;;;;;;5042710;28;20666;-79
2023/09/08 17:25:24;;;;;;;8.37;4.70;;;;;;;;;;5058311;28;20186;-80
2023/09/08 17:27:51;;;;;;;8.07;4.37;;;;;;;;;;5058767;28;20328;-80
2023/09/08 17:30:18;;;;;;;7.87;4.50;;;;;;;;;;5075748;28;20182;-79
2023/09/08 17:32:45;;;;;;;8.87;5.07;;;;;;;;;;5074486;28;20209;-80
2023/09/08 17:35:12;;;;;;;7.07;4.70;;;;;;;;;;5074169;28;20194;-79
2023/09/08 17:37:39;;;;;;;7.37;4.40;;;;;;;;;;5073900;28;20190;-70
2023/09/08 17:40:09;;;;;;;9.17;4.77;;;;;;;;;;5056819;28;20198;-70
2023/09/08 17:42:37;;;;;;;8.00;4.77;;;;;;;;;;5040869;28;20198;-70
2023/09/08 17:45:04;;;;;;;7.70;4.53;;;;;;;;;;5074529;28;20186;-71
2023/09/08 17:47:32;;;;;;;6.97;4.83;;;;;;;;;;5056812;28;20186;-70
2023/09/08 17:49:59;;;;;;;6.93;4.60;;;;;;;;;;5057367;28;20587;-71
2023/09/08 17:52:26;;;;;;;6.70;4.57;;;;;;;;;;5056811;28;20658;-70
2023/09/08 17:54:53;;;;;;;5.90;4.50;;;;;;;;;;5074908;28;20273;-70
2023/09/08 17:57:19;;;;;;;7.90;4.40;;;;;;;;;;5057062;28;20525;-70
2023/09/08 17:59:46;;;;;;;6.03;4.73;;;;;;;;;;5056311;28;20281;-70
2023/09/08 18:02:13;;;;;;;8.60;4.43;;;;;;;;;;5074405;28;20177;-70
2023/09/08 18:04:41;;;;;;;8.77;4.70;;;;;;;;;;5075339;28;20518;-70
2023/09/08 18:07:08;;;;;;;6.53;4.80;;;;;;;;;;5056836;28;20190;-70
2023/09/08 18:09:36;;;;;;;7.30;5.00;;;;;;;;;;5074994;28;20201;-70
2023/09/08 18:12:03;;;;;;;9.20;5.50;;;;;;;;;;5074299;28;20695;-70
2023/09/08 18:14:30;;;;;;;6.70;5.30;;;;;;;;;;5073957;28;20205;-70
2023/09/08 18:16:57;;;;;;;10.60;5.83;;;;;;;;;;5056523;28;20182;-70
2023/09/08 18:19:24;;;;;;;10.67;5.70;;;;;;;;;;5056249;28;20182;-70
2023/09/08 18:21:51;;;;;;;9.60;5.23;;;;;;;;;;5056229;28;20264;-70
2023/09/08 18:24:18;;;;;;;10.97;6.20;;;;;;;;;;5073919;28;20179;-69
2023/09/08 18:26:44;;;;;;;9.10;5.50;;;;;;;;;;5057027;28;20617;-70
2023/09/08 18:29:11;;;;;;;12.57;5.33;;;;;;;;;;5055644;28;20206;-70
2023/09/08 18:31:39;;;;;;;11.03;5.77;;;;;;;;;;5056342;28;20182;-70
2023/09/08 18:34:08;;;;;;;7.77;5.13;;;;;;;;;;5074282;28;20189;-70
2023/09/08 18:36:36;;;;;;;7.93;5.20;;;;;;;;;;5056937;28;20182;-70
2023/09/08 18:39:04;;;;;;;13.77;5.97;;;;;;;;;;5056053;28;20213;-70
2023/09/08 18:41:31;;;;;;;16.50;6.17;;;;;;;;;;5056019;28;20178;-70
2023/09/08 18:43:57;;;;;;;12.03;5.70;;;;;;;;;;5055849;28;20629;-70
2023/09/08 18:46:24;;;;;;;9.43;5.50;;;;;;;;;;5055832;28;20190;-70
2023/09/08 18:48:51;;;;;;;13.37;6.10;;;;;;;;;;5039454;28;20514;-70
2023/09/08 18:51:18;;;;;;;8.10;6.37;;;;;;;;;;5073870;28;20185;-70
2023/09/08 18:53:46;;;;;;;14.83;5.93;;;;;;;;;;5055995;28;20289;-70
2023/09/08 18:56:17;;;;;;;8.93;6.30;;;;;;;;;;5055403;28;20217;-70
2023/09/08 18:58:44;;;;;;;9.67;6.17;;;;;;;;;;5056439;28;20277;-70
2023/09/08 19:01:11;;;;;;;11.83;7.13;;;;;;;;;;5073141;28;20194;-70
2023/09/08 19:03:38;;;;;;;10.93;6.37;;;;;;;;;;5073028;28;20213;-71
2023/09/08 19:06:05;;;;;;;13.73;6.40;;;;;;;;;;5055761;28;20213;-69